Terminal Aerodrome Forecast
Issued by NWS

Home | Current Version | Previous Version | Text Only | Print | Product List | Glossary On
Versions: 1 2 3 4 5 6 7 8 9 10 11 12 13 14 15 16 17 18 19 20 21 22 23 24 25 26 27 28 29
000
FTUS41 KCTP 272359
TAFBFD
TAF
KBFD 272359Z 2800/2824 VRB02KT P6SM FEW045
     FM280700 00000KT 3SM BR VCFG SCT015
     FM281200 16005KT P6SM BKN045
     FM282300 16005KT P6SM VCSH BKN030=

USA.gov is the U.S. government's official web portal to all federal, state and local government web resources and services.